createdAt,value
2019-05-10T00:00:41.639Z,1.02
2019-05-10T00:05:50.675Z,0.82
2019-05-10T00:10:59.785Z,0.69
2019-05-10T00:16:08.859Z,0.72
2019-05-10T00:21:17.969Z,0.76
2019-05-10T00:31:27.775Z,0.70
2019-05-10T00:36:36.840Z,0.72
2019-05-10T00:41:45.959Z,0.66
2019-05-10T00:46:55.016Z,0.82
2019-05-10T00:52:04.145Z,0.70
2019-05-10T00:57:13.173Z,0.74
2019-05-10T01:02:22.285Z,0.85
2019-05-10T01:07:31.332Z,0.74
2019-05-10T01:12:40.462Z,0.65
2019-05-10T01:17:49.502Z,0.71
2019-05-10T01:22:58.604Z,0.78
2019-05-10T01:28:07.715Z,0.65
2019-05-10T01:33:16.873Z,0.62
2019-05-10T01:38:25.907Z,0.55
2019-05-10T01:43:35.048Z,0.58
2019-05-10T01:48:44.090Z,0.59
2019-05-10T01:53:53.351Z,0.69
2019-05-10T01:59:02.405Z,0.49
2019-05-10T02:04:11.500Z,0.55
2019-05-10T02:09:20.552Z,0.57
2019-05-10T02:14:29.917Z,0.64
2019-05-10T02:19:39.005Z,0.53
2019-05-10T02:24:48.184Z,0.53
2019-05-10T02:29:57.396Z,0.67
2019-05-10T02:35:06.548Z,0.53
2019-05-10T02:40:15.591Z,0.77
2019-05-10T02:45:24.700Z,0.43
2019-05-10T02:50:33.765Z,0.51
2019-05-10T02:55:42.911Z,0.57
2019-05-10T03:00:51.981Z,0.52
2019-05-10T03:06:01.344Z,0.68
2019-05-10T03:11:10.449Z,0.52
2019-05-10T03:16:19.754Z,0.39
2019-05-10T03:21:27.360Z,0.61
2019-05-10T03:26:50.393Z,0.47
2019-05-10T03:31:45.069Z,0.54
2019-05-10T03:36:54.161Z,0.49
2019-05-10T03:42:03.293Z,0.69
2019-05-10T03:47:12.329Z,0.62
2019-05-10T03:52:21.419Z,0.63
2019-05-10T03:57:30.461Z,0.64
2019-05-10T04:02:39.654Z,0.70
2019-05-10T04:07:48.698Z,0.60
2019-05-10T04:12:56.612Z,0.90
2019-05-10T04:18:05.696Z,0.68
2019-05-10T04:23:14.851Z,0.68
2019-05-10T04:28:23.881Z,0.64
2019-05-10T04:33:33.154Z,0.64
2019-05-10T04:38:42.203Z,0.46
2019-05-10T04:43:51.297Z,0.64
2019-05-10T04:49:00.315Z,0.50
2019-05-10T04:54:09.461Z,0.49
2019-05-10T04:59:18.505Z,0.77
2019-05-10T05:04:27.601Z,0.63
2019-05-10T05:09:36.698Z,0.72
2019-05-10T05:14:45.795Z,0.61
2019-05-10T05:19:54.815Z,0.77
2019-05-10T05:25:04.018Z,0.67
2019-05-10T05:30:13.058Z,0.69
2019-05-10T05:35:22.160Z,0.73
2019-05-10T05:40:31.289Z,0.73
2019-05-10T05:45:40.488Z,0.88
2019-05-10T05:50:49.691Z,0.63
2019-05-10T05:56:03.714Z,0.80
2019-05-10T06:01:07.391Z,0.84
2019-05-10T06:06:21.651Z,0.69
2019-05-10T06:11:29.856Z,0.72
2019-05-10T06:16:33.826Z,0.85
2019-05-10T06:21:42.928Z,0.73
2019-05-10T06:26:51.985Z,0.67
2019-05-10T06:32:02.204Z,0.66
2019-05-10T06:37:01.185Z,0.75
2019-05-10T06:42:10.357Z,0.78
2019-05-10T06:47:21.837Z,0.61
2019-05-10T06:52:29.763Z,0.80
2019-05-10T06:57:36.751Z,0.55
2019-05-10T07:02:45.913Z,0.62
2019-05-10T07:08:00.017Z,0.76
2019-05-10T07:13:06.390Z,0.78
2019-05-10T07:18:16.878Z,0.69
2019-05-10T07:23:21.222Z,0.91
2019-05-10T07:28:30.302Z,0.80
2019-05-10T07:33:40.247Z,0.82
2019-05-10T07:38:48.113Z,0.69
2019-05-10T07:44:00.602Z,0.68
2019-05-10T07:49:05.872Z,0.79
2019-05-10T07:54:14.968Z,0.68
2019-05-10T07:59:29.151Z,0.61
2019-05-10T08:04:33.664Z,0.63
2019-05-10T08:09:45.057Z,0.72
2019-05-10T08:14:53.358Z,0.60
2019-05-10T08:19:58.504Z,0.68
2019-05-10T08:25:08.159Z,0.79
2019-05-10T08:30:25.689Z,0.76
2019-05-10T08:35:25.814Z,0.73
2019-05-10T08:40:37.828Z,0.73
2019-05-10T08:45:47.178Z,0.62
2019-05-10T08:50:57.074Z,0.87
2019-05-10T08:56:02.216Z,0.77
2019-05-10T09:01:20.512Z,0.75
2019-05-10T09:06:18.123Z,0.67
2019-05-10T09:11:27.173Z,0.60
2019-05-10T09:16:43.512Z,0.82
2019-05-10T09:21:49.865Z,0.76
2019-05-10T09:26:56.981Z,0.66
2019-05-10T09:32:06.213Z,0.76
2019-05-10T09:37:14.322Z,0.76
2019-05-10T09:42:26.464Z,0.67
2019-05-10T09:47:27.975Z,0.76
2019-05-10T09:52:37.018Z,0.68
2019-05-10T09:57:48.030Z,0.80
2019-05-10T10:02:58.736Z,0.64
2019-05-10T10:08:03.587Z,0.44
2019-05-10T10:13:13.933Z,0.64
2019-05-10T10:18:25.025Z,0.73
2019-05-10T10:23:33.082Z,0.69
2019-05-10T10:28:39.682Z,0.45
2019-05-10T10:33:54.825Z,0.73
2019-05-10T10:38:55.330Z,0.72
2019-05-10T10:44:04.495Z,0.70
2019-05-10T10:49:14.591Z,0.43
2019-05-10T10:54:22.453Z,0.71
2019-05-10T10:59:30.805Z,1.10
2019-05-10T11:04:46.146Z,1.32
2019-05-10T11:09:53.839Z,1.80
2019-05-10T11:14:57.285Z,1.34
2019-05-10T11:20:08.621Z,1.03
2019-05-10T11:25:14.998Z,0.96
2019-05-10T11:30:24.316Z,0.56
2019-05-10T11:35:34.661Z,0.64
2019-05-10T11:40:42.348Z,0.72
2019-05-10T11:45:51.743Z,0.84
2019-05-10T11:51:05.802Z,0.60
2019-05-10T11:56:14.048Z,0.39
2019-05-10T12:01:19.928Z,0.72
2019-05-10T12:06:27.753Z,0.59
2019-05-10T12:11:40.747Z,0.42
2019-05-10T12:16:45.695Z,0.42
2019-05-10T12:21:56.026Z,0.55
2019-05-10T12:27:17.267Z,0.48
2019-05-10T12:32:12.309Z,0.66
2019-05-10T12:37:21.442Z,0.65
2019-05-10T12:42:31.680Z,0.61
2019-05-10T12:47:41.490Z,0.55
2019-05-10T12:52:50.557Z,0.66
2019-05-10T12:57:56.796Z,0.56
2019-05-10T13:03:12.943Z,0.54
2019-05-10T13:08:14.597Z,0.82
2019-05-10T13:13:29.288Z,0.54
2019-05-10T13:18:49.666Z,0.56
2019-05-10T13:23:40.984Z,0.57
2019-05-10T13:28:50.105Z,0.38
2019-05-10T13:33:59.153Z,0.58
2019-05-10T13:39:08.268Z,0.53
2019-05-10T13:44:17.297Z,0.55
2019-05-10T13:49:26.411Z,0.66
2019-05-10T13:54:36.197Z,0.77
2019-05-10T13:59:48.902Z,0.56
2019-05-10T14:04:52.659Z,0.77
2019-05-10T14:10:01.770Z,0.69
2019-05-10T14:15:13.543Z,0.88
2019-05-10T14:20:25.253Z,0.76
2019-05-10T14:25:29.695Z,0.86
2019-05-10T14:30:37.206Z,1.09
2019-05-10T14:35:46.260Z,0.78
2019-05-10T14:40:55.394Z,0.61
2019-05-10T14:46:04.604Z,0.74
2019-05-10T14:51:13.954Z,0.87
2019-05-10T14:56:22.292Z,1.02
2019-05-10T15:01:36.856Z,0.64
2019-05-10T15:06:39.956Z,0.64
2019-05-10T15:11:49.003Z,0.49
2019-05-10T15:16:58.160Z,0.52
2019-05-10T15:22:07.369Z,0.61
2019-05-10T15:27:21.894Z,0.56
2019-05-10T15:32:25.141Z,0.41
2019-05-10T15:37:34.312Z,0.48
2019-05-10T15:42:43.527Z,0.59
2019-05-10T15:47:57.429Z,0.36
2019-05-10T15:53:01.388Z,0.61
2019-05-10T15:58:10.483Z,0.33
2019-05-10T16:03:19.602Z,0.66
2019-05-10T16:08:30.459Z,0.37
2019-05-10T16:13:37.464Z,0.50
2019-05-10T16:18:46.526Z,0.44
2019-05-10T16:23:55.642Z,0.43
2019-05-10T16:29:04.672Z,0.41
2019-05-10T16:34:13.777Z,0.54
2019-05-10T16:39:22.852Z,0.50
2019-05-10T16:44:32.069Z,0.24
2019-05-10T16:49:41.115Z,0.44
2019-05-10T16:54:50.338Z,0.56
2019-05-10T17:00:01.881Z,0.43
2019-05-10T17:05:09.540Z,0.38
2019-05-10T17:10:16.772Z,0.61
2019-05-10T17:15:26.343Z,0.48
2019-05-10T17:20:35.414Z,0.44
2019-05-10T17:25:44.512Z,0.36
2019-05-10T17:30:53.546Z,0.56
2019-05-10T17:36:08.279Z,0.49
2019-05-10T17:41:11.218Z,0.38
2019-05-10T17:46:20.865Z,0.44
2019-05-10T17:51:29.187Z,0.32
2019-05-10T17:56:39.329Z,0.37
2019-05-10T18:01:46.860Z,0.56
2019-05-10T18:06:55.905Z,0.33
2019-05-10T18:12:05.048Z,0.40
2019-05-10T18:17:14.076Z,0.30
2019-05-10T18:22:23.238Z,0.37
2019-05-10T18:27:32.307Z,0.46
2019-05-10T18:32:41.955Z,0.51
2019-05-10T18:37:53.608Z,0.46
2019-05-10T18:43:04.027Z,0.48
2019-05-10T18:48:08.375Z,0.38
2019-05-10T18:53:17.521Z,0.50
2019-05-10T18:58:29.548Z,0.65
2019-05-10T19:03:35.486Z,0.65
2019-05-10T19:08:44.199Z,0.33
2019-05-10T19:13:54.142Z,0.38
2019-05-10T19:19:01.988Z,0.41
2019-05-10T19:24:09.831Z,0.58
2019-05-10T19:29:18.949Z,0.63
2019-05-10T19:34:28.012Z,0.75
2019-05-10T19:39:37.132Z,0.54
2019-05-10T19:44:46.263Z,0.55
2019-05-10T19:49:55.456Z,0.40
2019-05-10T19:55:04.659Z,0.31
2019-05-10T20:00:13.700Z,0.41
2019-05-10T20:05:22.800Z,0.38
2019-05-10T20:10:31.843Z,0.38
2019-05-10T20:15:40.953Z,0.57
2019-05-10T20:20:50.007Z,0.59
2019-05-10T20:25:59.466Z,0.40
2019-05-10T20:31:08.076Z,0.47
2019-05-10T20:36:17.190Z,0.42
2019-05-10T20:41:26.240Z,0.39
2019-05-10T20:46:35.374Z,0.47
2019-05-10T20:51:44.503Z,0.32
2019-05-10T20:56:53.558Z,0.27
2019-05-10T21:02:02.692Z,0.33
2019-05-10T21:07:12.041Z,0.40
2019-05-10T21:12:21.394Z,0.40
2019-05-10T21:17:30.438Z,0.58
2019-05-10T21:22:39.573Z,0.41
2019-05-10T21:27:48.614Z,0.46
2019-05-10T21:32:57.693Z,0.35
2019-05-10T21:38:06.737Z,0.47
2019-05-10T21:43:15.870Z,0.30
2019-05-10T21:48:24.903Z,0.44
2019-05-10T21:53:34.007Z,0.48
2019-05-10T21:58:44.050Z,0.58
2019-05-10T22:03:43.154Z,0.48
2019-05-10T22:08:52.210Z,0.53
2019-05-10T22:14:01.329Z,0.39
2019-05-10T22:19:10.468Z,0.50
2019-05-10T22:24:19.554Z,0.49
2019-05-10T22:29:28.659Z,0.52
2019-05-10T22:34:37.916Z,0.67
2019-05-10T22:39:47.145Z,0.54
2019-05-10T22:44:56.179Z,0.57
2019-05-10T22:50:05.353Z,0.52
2019-05-10T22:55:14.376Z,0.52
2019-05-10T23:00:23.479Z,0.59
2019-05-10T23:05:32.624Z,0.44
2019-05-10T23:10:41.717Z,0.33
2019-05-10T23:15:50.823Z,0.40
2019-05-10T23:20:59.922Z,0.36
2019-05-10T23:26:09.427Z,0.40
2019-05-10T23:31:18.542Z,0.39
2019-05-10T23:36:27.574Z,0.31
2019-05-10T23:41:36.861Z,0.32
2019-05-10T23:46:45.906Z,0.25
2019-05-10T23:51:55.226Z,0.27
2019-05-10T23:57:04.254Z,0.30
